Time;durP1;ratioP1;P1;durP2;ratioP2;P2;SDS_P1;SDS_P2;PMS_P1;PMS_P2;Temp;Humidity;BMP_temperature;BMP_pressure;BME280_temperature;BME280_humidity;BME280_pressure;Samples;Min_cycle;Max_cycle;Signal;HPM_P1;HPM_P2
2023/07/16 00:01:12;;;;;;;3.00;1.73;;;20.60;81.50;;;;;;5051052;28;20427;-70
2023/07/16 00:03:39;;;;;;;2.85;1.48;;;20.60;81.90;;;;;;5050959;28;20432;-69
2023/07/16 00:06:06;;;;;;;3.40;1.80;;;20.50;82.00;;;;;;5050496;28;20535;-69
2023/07/16 00:08:32;;;;;;;2.90;1.58;;;20.50;82.40;;;;;;5049646;28;20816;-69
2023/07/16 00:11:00;;;;;;;2.78;1.90;;;20.40;82.40;;;;;;5050261;28;20424;-68
2023/07/16 00:13:27;;;;;;;2.58;1.70;;;20.40;82.60;;;;;;5050582;28;20926;-69
2023/07/16 00:15:54;;;;;;;2.30;1.30;;;20.40;82.40;;;;;;5049907;28;20413;-69
2023/07/16 00:18:21;;;;;;;3.10;1.70;;;20.40;82.30;;;;;;5050700;28;20420;-69
2023/07/16 00:20:47;;;;;;;3.30;1.55;;;20.30;82.50;;;;;;5050233;28;20440;-69
2023/07/16 00:23:14;;;;;;;3.40;1.60;;;20.30;83.00;;;;;;5049508;28;20532;-69
2023/07/16 00:25:41;;;;;;;2.35;1.70;;;20.30;83.00;;;;;;5050239;28;20421;-69
2023/07/16 00:28:09;;;;;;;3.40;1.88;;;20.30;83.50;;;;;;5050594;28;20417;-68
2023/07/16 00:30:35;;;;;;;3.90;1.70;;;20.20;83.90;;;;;;5050020;28;20409;-68
2023/07/16 00:33:02;;;;;;;4.50;1.58;;;20.10;83.40;;;;;;5050452;28;20432;-68
2023/07/16 00:35:29;;;;;;;3.30;1.70;;;20.10;84.60;;;;;;5050875;28;20417;-68
2023/07/16 00:37:55;;;;;;;3.22;1.58;;;20.10;84.40;;;;;;5048715;28;20816;-68
2023/07/16 00:40:22;;;;;;;2.60;1.85;;;20.10;84.80;;;;;;5048949;28;20783;-68
2023/07/16 00:42:49;;;;;;;3.20;1.63;;;20.10;84.90;;;;;;5050219;28;20420;-69
2023/07/16 00:45:17;;;;;;;2.80;1.50;;;20.00;85.30;;;;;;5050090;28;20764;-69
2023/07/16 00:47:45;;;;;;;3.78;1.83;;;20.00;84.80;;;;;;5049998;28;20409;-69
2023/07/16 00:50:12;;;;;;;2.20;1.90;;;20.00;85.30;;;;;;5049875;28;20409;-69
2023/07/16 00:52:40;;;;;;;3.03;1.70;;;19.90;84.90;;;;;;5049177;28;20437;-69
2023/07/16 00:55:08;;;;;;;2.15;1.40;;;19.90;86.20;;;;;;5049184;28;20914;-69
2023/07/16 00:57:35;;;;;;;2.92;1.60;;;19.80;85.10;;;;;;5049762;28;20496;-69
2023/07/16 01:00:03;;;;;;;2.20;1.50;;;19.80;85.70;;;;;;5049695;28;20421;-69
2023/07/16 01:02:31;;;;;;;2.50;1.50;;;19.80;84.60;;;;;;5047108;28;21014;-69
2023/07/16 01:04:58;;;;;;;2.93;1.53;;;19.70;85.80;;;;;;5049829;28;20436;-69
2023/07/16 01:07:27;;;;;;;2.50;1.70;;;19.60;85.10;;;;;;5049056;28;20419;-69
2023/07/16 01:09:55;;;;;;;2.60;1.50;;;19.60;86.00;;;;;;5047733;28;20421;-69
2023/07/16 01:12:23;;;;;;;2.33;1.50;;;19.60;86.40;;;;;;5049714;28;20478;-69
2023/07/16 01:14:51;;;;;;;2.80;1.60;;;19.50;86.80;;;;;;5049408;28;20788;-69
2023/07/16 01:17:18;;;;;;;2.60;2.25;;;19.40;86.00;;;;;;5048586;28;20756;-70
2023/07/16 01:19:46;;;;;;;3.60;1.65;;;19.40;86.70;;;;;;5048775;28;20531;-69
2023/07/16 01:22:47;;;;;;;3.72;1.60;;;19.40;87.90;;;;;;5049134;28;20409;-69
2023/07/16 01:25:31;;;;;;;2.40;1.55;;;19.30;87.80;;;;;;5032185;28;20791;-69
2023/07/16 01:28:17;;;;;;;2.85;1.52;;;19.30;89.20;;;;;;5029647;28;20410;-69
2023/07/16 01:30:46;;;;;;;4.00;1.75;;;19.20;88.10;;;;;;5028607;28;20418;-69
2023/07/16 01:33:15;;;;;;;3.47;1.58;;;19.20;88.30;;;;;;5033368;28;20452;-69
2023/07/16 01:35:43;;;;;;;3.55;2.00;;;19.20;89.10;;;;;;5048878;28;20428;-69
2023/07/16 01:38:11;;;;;;;3.00;1.80;;;19.10;89.20;;;;;;5048442;28;20425;-69
2023/07/16 01:40:37;;;;;;;2.27;1.53;;;19.10;89.50;;;;;;5048101;28;20417;-69
2023/07/16 01:43:04;;;;;;;3.00;1.50;;;19.10;89.50;;;;;;5048974;28;20512;-69
2023/07/16 01:45:31;;;;;;;2.88;1.60;;;19.10;89.30;;;;;;5048965;28;20409;-69
2023/07/16 01:48:08;;;;;;;3.13;1.40;;;19.00;89.10;;;;;;5049222;28;20464;-69
2023/07/16 01:50:35;;;;;;;2.67;1.67;;;19.00;89.60;;;;;;5046998;28;20437;-69
2023/07/16 01:53:02;;;;;;;2.58;1.30;;;19.00;88.80;;;;;;5048568;28;20803;-69
2023/07/16 01:55:28;;;;;;;2.38;1.60;;;18.90;89.10;;;;;;5047267;28;20444;-69
2023/07/16 01:57:55;;;;;;;3.22;1.65;;;18.90;90.20;;;;;;5029626;28;20419;-69
2023/07/16 02:00:22;;;;;;;2.90;1.50;;;18.90;89.60;;;;;;5028520;28;20445;-69
2023/07/16 02:02:48;;;;;;;3.50;1.90;;;18.80;89.80;;;;;;5028576;28;20422;-69
2023/07/16 02:05:17;;;;;;;3.47;1.80;;;18.80;90.00;;;;;;5028960;28;20874;-69
2023/07/16 02:07:44;;;;;;;3.20;1.60;;;18.80;89.30;;;;;;5044204;28;20437;-69
2023/07/16 02:10:11;;;;;;;3.55;1.60;;;18.80;89.70;;;;;;5046618;28;20461;-69
2023/07/16 02:12:37;;;;;;;3.10;1.50;;;18.80;90.20;;;;;;5047449;28;20425;-69
2023/07/16 02:15:05;;;;;;;2.08;1.50;;;18.70;89.40;;;;;;5048798;28;20417;-69
2023/07/16 02:17:32;;;;;;;4.30;1.60;;;18.70;89.20;;;;;;5048698;28;20899;-69
2023/07/16 02:19:58;;;;;;;2.50;1.50;;;18.70;88.80;;;;;;5047881;28;20421;-69
2023/07/16 02:22:26;;;;;;;3.78;1.60;;;18.70;89.10;;;;;;5048252;28;20888;-69
2023/07/16 02:24:53;;;;;;;2.47;1.60;;;18.70;89.60;;;;;;5046299;28;20440;-69
2023/07/16 02:27:20;;;;;;;4.72;1.70;;;18.60;88.90;;;;;;5047984;28;20921;-69
2023/07/16 02:29:46;;;;;;;3.38;1.90;;;18.60;89.40;;;;;;5047867;28;20421;-69
2023/07/16 02:32:13;;;;;;;4.50;1.40;;;18.60;89.90;;;;;;5048469;28;20409;-69
2023/07/16 02:34:40;;;;;;;2.73;1.50;;;18.50;89.50;;;;;;5047453;28;20883;-69
2023/07/16 02:37:06;;;;;;;2.58;1.67;;;18.50;89.60;;;;;;5048368;28;20413;-69
2023/07/16 02:39:34;;;;;;;3.40;1.70;;;18.50;89.50;;;;;;5046855;28;20428;-69
2023/07/16 02:42:01;;;;;;;3.95;1.90;;;18.40;90.10;;;;;;5045090;28;20436;-69
2023/07/16 02:44:28;;;;;;;3.38;1.77;;;18.40;90.00;;;;;;5048334;28;20888;-68
2023/07/16 02:46:55;;;;;;;3.88;1.67;;;18.40;89.50;;;;;;5048453;28;20428;-69
2023/07/16 02:49:21;;;;;;;2.00;1.40;;;18.40;90.10;;;;;;5047028;28;20433;-69
2023/07/16 02:51:48;;;;;;;3.25;1.48;;;18.30;89.30;;;;;;5048586;28;20417;-69
2023/07/16 02:54:15;;;;;;;2.70;1.50;;;18.30;90.10;;;;;;5046710;28;20504;-69
2023/07/16 02:56:43;;;;;;;3.53;1.92;;;18.30;90.30;;;;;;5047546;28;20919;-69
2023/07/16 02:59:09;;;;;;;3.20;1.50;;;18.30;90.00;;;;;;5047574;28;20417;-69
2023/07/16 03:01:36;;;;;;;2.67;1.70;;;18.20;90.10;;;;;;5048081;28;20597;-69
2023/07/16 03:04:03;;;;;;;2.63;1.80;;;18.20;89.70;;;;;;5047320;28;20423;-69
2023/07/16 03:06:29;;;;;;;3.63;1.75;;;18.20;89.90;;;;;;5048058;28;20808;-69
2023/07/16 03:08:56;;;;;;;3.85;1.90;;;18.20;90.00;;;;;;5027404;28;20415;-69
2023/07/16 03:11:23;;;;;;;3.40;1.58;;;18.10;90.40;;;;;;5044497;28;20456;-69
2023/07/16 03:13:51;;;;;;;3.55;1.95;;;18.10;90.00;;;;;;5047934;28;20492;-69
2023/07/16 03:16:18;;;;;;;3.60;1.70;;;18.10;90.20;;;;;;5047954;28;20497;-69
2023/07/16 03:18:45;;;;;;;2.35;1.30;;;18.10;90.10;;;;;;5047936;28;20596;-69
2023/07/16 03:21:11;;;;;;;2.55;1.50;;;18.00;90.10;;;;;;5047064;28;20440;-69
2023/07/16 03:23:38;;;;;;;4.30;1.42;;;18.00;90.00;;;;;;5047119;28;20417;-69
2023/07/16 03:26:05;;;;;;;2.70;1.70;;;18.00;90.10;;;;;;5046882;28;20927;-69
2023/07/16 03:28:32;;;;;;;4.22;2.05;;;18.00;89.90;;;;;;5047755;28;20417;-69
2023/07/16 03:31:00;;;;;;;3.55;1.58;;;18.00;90.70;;;;;;5047492;28;20417;-69
2023/07/16 03:33:26;;;;;;;2.63;1.40;;;18.00;90.60;;;;;;5047373;28;20432;-69
2023/07/16 03:35:53;;;;;;;3.47;1.48;;;18.00;90.50;;;;;;5047929;28;20417;-69
2023/07/16 03:38:20;;;;;;;4.35;1.90;;;18.00;90.30;;;;;;5046497;28;20436;-69
2023/07/16 03:40:48;;;;;;;3.67;1.70;;;18.00;90.10;;;;;;5046199;28;20433;-69
2023/07/16 03:43:15;;;;;;;3.00;1.70;;;18.00;90.00;;;;;;5047499;28;20420;-69
2023/07/16 03:45:42;;;;;;;3.10;1.98;;;18.00;89.50;;;;;;5047917;28;20779;-69
2023/07/16 03:48:10;;;;;;;3.60;1.50;;;18.00;89.50;;;;;;5047342;28;20417;-69
2023/07/16 03:50:37;;;;;;;3.90;1.80;;;18.00;89.40;;;;;;5049321;28;20822;-69
2023/07/16 03:53:04;;;;;;;3.20;1.75;;;18.00;89.10;;;;;;5050863;28;20425;-67
2023/07/16 03:55:31;;;;;;;3.10;1.67;;;18.00;89.40;;;;;;5049667;28;20460;-68
2023/07/16 03:57:58;;;;;;;3.40;1.90;;;17.90;89.10;;;;;;5039738;28;20940;-68
2023/07/16 04:00:25;;;;;;;3.00;1.60;;;17.90;89.50;;;;;;5030369;28;20411;-68
2023/07/16 04:02:51;;;;;;;3.60;1.70;;;17.90;88.50;;;;;;5031064;28;20418;-67
2023/07/16 04:05:20;;;;;;;2.70;1.75;;;17.90;88.50;;;;;;5031153;28;20427;-68
2023/07/16 04:07:47;;;;;;;2.70;1.70;;;17.90;88.90;;;;;;5030757;28;20430;-68
2023/07/16 04:10:13;;;;;;;3.35;1.80;;;17.90;88.00;;;;;;5034348;28;20449;-68
2023/07/16 04:12:40;;;;;;;4.13;1.50;;;17.90;88.50;;;;;;5049770;28;20476;-69
2023/07/16 04:15:09;;;;;;;2.80;1.60;;;17.90;89.90;;;;;;5050472;28;20537;-69
2023/07/16 04:17:36;;;;;;;3.90;1.90;;;17.90;88.50;;;;;;5050766;28;20413;-69
2023/07/16 04:20:04;;;;;;;3.65;1.85;;;17.90;89.00;;;;;;5050035;28;20413;-69
2023/07/16 04:22:33;;;;;;;3.58;1.60;;;17.90;89.50;;;;;;5050412;28;20455;-68
2023/07/16 04:24:59;;;;;;;2.90;2.00;;;17.90;88.40;;;;;;5049263;28;20436;-69
2023/07/16 04:27:26;;;;;;;3.78;1.70;;;17.90;88.20;;;;;;5050460;28;20421;-68
2023/07/16 04:29:53;;;;;;;4.30;1.80;;;17.80;88.00;;;;;;5049925;28;20424;-68
2023/07/16 04:32:19;;;;;;;2.35;1.70;;;17.80;88.80;;;;;;5050602;28;20418;-68
2023/07/16 04:34:46;;;;;;;2.67;1.80;;;17.80;87.80;;;;;;5050222;28;20471;-68
2023/07/16 04:37:13;;;;;;;2.95;1.60;;;17.80;87.80;;;;;;5050446;28;20440;-68
2023/07/16 04:39:41;;;;;;;5.47;1.90;;;17.80;88.00;;;;;;5048340;28;20433;-68
2023/07/16 04:42:08;;;;;;;3.63;2.00;;;17.80;87.70;;;;;;5050240;28;20417;-68
2023/07/16 04:44:34;;;;;;;3.13;1.83;;;17.80;87.90;;;;;;5050086;28;20413;-69
2023/07/16 04:47:01;;;;;;;3.88;2.40;;;17.80;88.10;;;;;;5050133;28;20416;-68
2023/07/16 04:49:28;;;;;;;4.70;2.03;;;17.90;87.60;;;;;;5049472;28;20437;-67
2023/07/16 04:51:54;;;;;;;4.55;2.10;;;17.90;87.20;;;;;;5050127;28;20810;-68
2023/07/16 04:54:21;;;;;;;3.60;1.80;;;17.90;87.10;;;;;;5047415;28;20435;-68
2023/07/16 04:56:49;;;;;;;3.58;2.10;;;17.90;87.30;;;;;;5049881;28;20413;-69
2023/07/16 04:59:16;;;;;;;4.65;2.40;;;17.90;85.70;;;;;;5049458;28;20436;-68
2023/07/16 05:01:42;;;;;;;5.60;2.70;;;17.90;86.00;;;;;;5048385;28;20429;-68
2023/07/16 05:04:09;;;;;;;4.63;2.13;;;17.90;85.60;;;;;;5049694;28;20417;-68
2023/07/16 05:06:36;;;;;;;6.18;2.90;;;17.90;85.80;;;;;;5049945;28;20464;-68
2023/07/16 05:09:03;;;;;;;3.95;2.30;;;17.90;85.70;;;;;;5048080;28;20433;-68
2023/07/16 05:11:30;;;;;;;3.80;2.30;;;17.90;85.70;;;;;;5049766;28;20478;-69
2023/07/16 05:13:58;;;;;;;4.80;2.03;;;17.90;85.80;;;;;;5029601;28;20458;-68
2023/07/16 05:16:24;;;;;;;5.25;2.15;;;18.00;85.50;;;;;;5029791;28;20537;-69
2023/07/16 05:18:51;;;;;;;3.58;2.20;;;18.00;85.00;;;;;;5031744;28;20421;-68
2023/07/16 05:21:18;;;;;;;3.57;2.20;;;17.90;85.30;;;;;;5030216;28;20919;-68
2023/07/16 05:23:44;;;;;;;5.20;2.50;;;18.00;85.10;;;;;;5052467;23;20452;-70
2023/07/16 05:26:11;;;;;;;4.72;2.40;;;18.00;84.70;;;;;;5039484;28;20434;-70
2023/07/16 05:28:38;;;;;;;3.50;2.38;;;18.00;85.10;;;;;;5038469;28;20539;-70
2023/07/16 05:31:06;;;;;;;3.90;2.20;;;18.00;84.00;;;;;;5030499;28;20785;-69
2023/07/16 05:33:32;;;;;;;5.50;2.45;;;18.10;83.60;;;;;;5031226;28;20430;-69
2023/07/16 05:35:59;;;;;;;4.10;2.17;;;18.10;83.30;;;;;;5032402;28;21064;-70
2023/07/16 05:38:26;;;;;;;6.25;2.50;;;18.10;82.00;;;;;;5037099;28;20451;-71
2023/07/16 05:40:52;;;;;;;3.83;2.50;;;18.10;81.30;;;;;;5033943;28;20483;-69
2023/07/16 05:43:19;;;;;;;4.90;2.30;;;18.10;79.60;;;;;;5035754;28;20422;-71
2023/07/16 05:45:46;;;;;;;4.78;2.42;;;18.20;79.50;;;;;;5030563;28;20766;-70
2023/07/16 05:48:14;;;;;;;5.80;2.45;;;18.20;78.90;;;;;;5030364;28;20418;-69
2023/07/16 05:50:41;;;;;;;4.00;2.50;;;18.20;78.70;;;;;;5029987;28;20426;-70
2023/07/16 05:53:07;;;;;;;5.03;2.75;;;18.20;78.00;;;;;;5032821;28;20444;-70
2023/07/16 05:55:34;;;;;;;5.93;2.60;;;18.20;78.30;;;;;;5040841;28;20942;-70
2023/07/16 05:58:01;;;;;;;5.03;2.83;;;18.30;77.30;;;;;;5040672;28;20460;-70
2023/07/16 06:00:28;;;;;;;4.70;2.72;;;18.30;76.70;;;;;;5037088;28;20417;-70
2023/07/16 06:02:55;;;;;;;6.70;3.10;;;18.30;77.40;;;;;;5050108;28;20413;-70
2023/07/16 06:05:24;;;;;;;5.93;2.83;;;18.30;76.00;;;;;;5049675;28;20432;-70
2023/07/16 06:07:51;;;;;;;7.03;3.10;;;18.30;74.90;;;;;;5045401;28;20465;-70
2023/07/16 06:10:17;;;;;;;6.05;3.10;;;18.40;73.70;;;;;;5041300;28;20437;-70
2023/07/16 06:12:44;;;;;;;4.70;3.13;;;18.40;74.30;;;;;;5040430;28;20443;-70
2023/07/16 06:15:11;;;;;;;5.28;3.30;;;18.40;73.00;;;;;;5049334;28;20887;-71
2023/07/16 06:17:38;;;;;;;4.30;2.80;;;18.40;72.70;;;;;;5040454;28;20441;-70
2023/07/16 06:20:07;;;;;;;6.47;3.60;;;18.50;72.50;;;;;;5029116;28;20498;-69
2023/07/16 06:22:35;;;;;;;6.13;3.43;;;18.50;72.50;;;;;;5030592;28;20506;-70
2023/07/16 06:25:02;;;;;;;4.97;3.25;;;18.50;72.90;;;;;;5037485;28;20422;-70
2023/07/16 06:27:28;;;;;;;4.45;3.40;;;18.50;72.30;;;;;;5029396;28;20418;-70
2023/07/16 06:29:55;;;;;;;6.72;3.78;;;18.60;70.00;;;;;;5028770;28;20889;-70
2023/07/16 06:32:22;;;;;;;6.70;3.75;;;18.60;69.80;;;;;;5029601;28;20423;-69
2023/07/16 06:34:49;;;;;;;6.85;3.80;;;18.70;70.30;;;;;;5029463;28;20832;-70
2023/07/16 06:37:15;;;;;;;6.73;3.60;;;18.80;68.80;;;;;;5037452;28;20433;-70
2023/07/16 06:39:43;;;;;;;6.13;3.40;;;18.80;69.10;;;;;;5038825;28;20442;-72
2023/07/16 06:42:10;;;;;;;6.32;3.40;;;18.80;68.30;;;;;;5035839;28;20419;-71
2023/07/16 06:44:37;;;;;;;4.63;3.25;;;18.90;68.70;;;;;;5028928;28;20418;-70
2023/07/16 06:47:04;;;;;;;5.47;4.00;;;18.90;66.70;;;;;;5029474;28;20848;-71
2023/07/16 06:49:31;;;;;;;5.93;3.42;;;19.00;67.10;;;;;;5045367;28;20378;-71
2023/07/16 06:52:01;;;;;;;4.45;3.50;;;19.00;65.40;;;;;;5060834;28;20861;-71
2023/07/16 06:54:28;;;;;;;5.45;3.20;;;19.10;64.80;;;;;;5057361;28;20450;-71
2023/07/16 06:56:56;;;;;;;6.38;3.40;;;19.10;66.00;;;;;;5041300;28;20425;-72
2023/07/16 06:59:23;;;;;;;7.30;3.55;;;19.20;65.30;;;;;;5048641;28;20872;-71
2023/07/16 07:01:50;;;;;;;4.28;3.25;;;19.30;64.60;;;;;;5049109;28;20417;-70
2023/07/16 07:04:17;;;;;;;6.55;3.65;;;19.30;63.30;;;;;;5048925;28;20409;-72
2023/07/16 07:06:43;;;;;;;5.57;3.22;;;19.30;63.60;;;;;;5046891;28;20433;-70
2023/07/16 07:09:10;;;;;;;4.45;3.70;;;19.40;62.50;;;;;;5031655;28;20760;-70
2023/07/16 07:11:37;;;;;;;4.65;3.25;;;19.40;62.20;;;;;;5036672;28;20439;-71
2023/07/16 07:14:05;;;;;;;4.40;3.40;;;19.50;61.90;;;;;;5036762;28;20906;-70
2023/07/16 07:16:31;;;;;;;5.07;3.30;;;19.50;61.50;;;;;;5029211;28;20410;-71
2023/07/16 07:18:58;;;;;;;4.93;3.30;;;19.60;61.40;;;;;;5029406;28;20495;-70
2023/07/16 07:21:25;;;;;;;5.13;3.70;;;19.70;58.70;;;;;;5029388;28;20422;-71
2023/07/16 07:23:51;;;;;;;4.80;3.13;;;19.80;57.30;;;;;;5031196;28;20429;-69
2023/07/16 07:26:18;;;;;;;4.93;3.30;;;19.80;57.30;;;;;;5041122;28;20414;-70
2023/07/16 07:28:45;;;;;;;5.57;3.63;;;19.80;56.40;;;;;;5032536;28;20521;-70
2023/07/16 07:31:13;;;;;;;4.97;3.40;;;19.90;57.00;;;;;;5032831;28;20422;-70
2023/07/16 07:33:39;;;;;;;5.60;3.13;;;19.90;55.00;;;;;;5033205;28;20414;-70
2023/07/16 07:36:07;;;;;;;4.70;3.50;;;20.00;55.30;;;;;;5032889;28;20427;-69
2023/07/16 07:38:34;;;;;;;5.10;3.60;;;20.10;54.50;;;;;;5039728;28;20444;-70
2023/07/16 07:41:00;;;;;;;4.13;3.60;;;20.20;53.30;;;;;;5040534;28;20805;-71
2023/07/16 07:43:27;;;;;;;4.30;3.30;;;20.30;53.70;;;;;;5038445;28;20429;-71
2023/07/16 07:45:54;;;;;;;4.40;3.40;;;20.30;53.80;;;;;;5041419;28;20426;-70
2023/07/16 07:48:22;;;;;;;4.40;3.10;;;20.30;54.70;;;;;;5032606;28;20825;-70
2023/07/16 07:50:49;;;;;;;5.55;3.50;;;20.40;52.30;;;;;;5032174;28;20423;-70
2023/07/16 07:53:17;;;;;;;5.18;3.60;;;20.50;52.70;;;;;;5035120;28;20442;-70
2023/07/16 07:55:44;;;;;;;4.88;3.40;;;20.60;51.50;;;;;;5042331;28;20425;-70
2023/07/16 07:58:11;;;;;;;5.10;2.92;;;20.60;52.70;;;;;;5032265;28;20532;-71
2023/07/16 08:00:38;;;;;;;4.85;3.50;;;20.80;50.30;;;;;;5031616;28;20457;-71
2023/07/16 08:03:05;;;;;;;4.10;3.25;;;20.80;50.40;;;;;;5032297;28;20417;-71
2023/07/16 08:05:34;;;;;;;5.95;3.78;;;20.80;50.10;;;;;;5031817;28;20410;-71
2023/07/16 08:08:01;;;;;;;4.10;3.23;;;20.90;49.70;;;;;;5037155;28;20512;-71
2023/07/16 08:10:27;;;;;;;3.90;3.40;;;21.00;48.40;;;;;;5039973;28;20423;-70
2023/07/16 08:12:54;;;;;;;4.13;3.63;;;21.00;48.30;;;;;;5031916;28;20905;-71
2023/07/16 08:15:21;;;;;;;5.50;3.20;;;21.10;48.50;;;;;;5031866;28;20422;-71
2023/07/16 08:17:48;;;;;;;5.00;3.85;;;21.20;47.80;;;;;;5033238;28;20434;-71
2023/07/16 08:20:14;;;;;;;5.30;3.47;;;21.30;45.90;;;;;;5031413;28;20488;-70
2023/07/16 08:22:42;;;;;;;3.90;3.47;;;21.30;46.10;;;;;;5034024;28;20920;-71
2023/07/16 08:25:10;;;;;;;4.55;3.50;;;21.30;45.20;;;;;;5039264;28;20422;-70
2023/07/16 08:27:36;;;;;;;4.25;3.70;;;21.30;45.10;;;;;;5042350;28;20429;-71
2023/07/16 08:30:03;;;;;;;4.80;3.80;;;21.30;45.50;;;;;;5039553;28;20422;-70
2023/07/16 08:32:30;;;;;;;4.57;3.50;;;21.50;45.00;;;;;;5032345;28;20415;-70
2023/07/16 08:34:57;;;;;;;4.07;3.00;;;21.70;44.30;;;;;;5031437;28;20510;-70
2023/07/16 08:37:24;;;;;;;4.15;3.35;;;21.70;43.40;;;;;;5031634;28;20410;-72
2023/07/16 08:39:54;;;;;;;5.25;3.50;;;21.70;43.60;;;;;;5041996;28;20820;-71
2023/07/16 08:42:21;;;;;;;4.57;3.80;;;21.70;44.10;;;;;;5051402;28;20475;-70
2023/07/16 08:44:50;;;;;;;6.10;3.53;;;21.80;43.60;;;;;;5051208;28;20939;-71
2023/07/16 08:47:17;;;;;;;5.30;3.40;;;21.90;43.30;;;;;;5051585;28;20559;-70
2023/07/16 08:49:54;;;;;;;5.22;3.40;;;22.10;42.70;;;;;;5051054;28;20417;-71
2023/07/16 08:52:21;;;;;;;4.35;3.38;;;22.10;42.30;;;;;;5063014;28;20420;-71
2023/07/16 08:54:48;;;;;;;4.47;3.70;;;22.10;41.80;;;;;;5063951;28;20481;-71
2023/07/16 08:57:16;;;;;;;4.10;3.20;;;22.10;42.30;;;;;;5055045;28;20415;-71
2023/07/16 08:59:43;;;;;;;4.80;3.38;;;22.30;42.10;;;;;;5037082;28;20415;-71
2023/07/16 09:02:10;;;;;;;3.90;3.30;;;22.60;41.30;;;;;;5037880;28;20435;-71
2023/07/16 09:04:37;;;;;;;4.15;3.00;;;22.70;41.50;;;;;;5039788;28;20426;-70
2023/07/16 09:07:05;;;;;;;4.57;3.00;;;22.90;40.60;;;;;;5033110;28;20432;-70
2023/07/16 09:09:31;;;;;;;4.25;3.05;;;23.10;40.00;;;;;;5043560;28;20520;-70
2023/07/16 09:11:58;;;;;;;3.60;2.70;;;23.10;40.40;;;;;;5039005;28;20411;-70
2023/07/16 09:14:26;;;;;;;3.50;2.97;;;23.00;40.00;;;;;;5030967;28;20423;-70
2023/07/16 09:16:53;;;;;;;3.20;2.60;;;22.90;41.30;;;;;;5038897;28;20433;-70
2023/07/16 09:19:22;;;;;;;3.17;2.72;;;22.90;40.50;;;;;;5037032;28;20872;-70
2023/07/16 09:21:50;;;;;;;3.53;3.20;;;22.90;40.70;;;;;;5051773;28;20417;-69
2023/07/16 09:24:17;;;;;;;3.50;2.40;;;22.80;40.80;;;;;;5041573;28;20464;-72
2023/07/16 09:26:50;;;;;;;4.13;2.55;;;22.90;41.00;;;;;;5033438;28;20411;-71
2023/07/16 09:29:17;;;;;;;3.83;2.58;;;22.90;41.80;;;;;;5036777;28;20510;-72
2023/07/16 09:32:00;;;;;;;2.95;2.40;;;23.10;41.10;;;;;;5057539;28;20418;-72
2023/07/16 09:34:28;;;;;;;4.15;2.45;;;23.40;39.90;;;;;;5052282;28;20587;-70
2023/07/16 09:36:55;;;;;;;4.30;2.70;;;23.30;40.40;;;;;;5038731;28;20419;-71
2023/07/16 09:39:23;;;;;;;4.13;2.40;;;23.30;41.10;;;;;;5037500;28;20433;-71
2023/07/16 09:41:50;;;;;;;4.00;2.50;;;23.40;40.40;;;;;;5031648;28;20423;-71
2023/07/16 09:44:17;;;;;;;3.05;2.22;;;23.50;40.30;;;;;;5031050;28;20427;-70
2023/07/16 09:46:45;;;;;;;3.10;2.65;;;23.70;40.50;;;;;;5030522;28;20407;-71
2023/07/16 09:49:15;;;;;;;3.80;2.20;;;23.80;40.10;;;;;;5041480;28;20444;-71
2023/07/16 09:51:44;;;;;;;3.10;2.20;;;23.80;40.40;;;;;;5032916;28;20917;-70
2023/07/16 09:54:14;;;;;;;3.25;2.10;;;23.60;39.70;;;;;;5036762;28;20458;-70
2023/07/16 09:56:44;;;;;;;3.08;2.03;;;23.50;39.60;;;;;;5045645;28;20431;-71
2023/07/16 09:59:14;;;;;;;4.32;2.33;;;23.20;40.20;;;;;;5043608;28;20406;-71
2023/07/16 10:01:41;;;;;;;3.53;2.28;;;23.10;40.70;;;;;;5044594;28;20415;-71
2023/07/16 10:04:13;;;;;;;3.40;2.00;;;23.20;41.60;;;;;;5037202;28;20490;-71
2023/07/16 10:06:50;;;;;;;2.53;2.17;;;23.40;40.60;;;;;;5039468;28;20407;-71
2023/07/16 10:09:32;;;;;;;3.33;2.17;;;23.40;40.10;;;;;;5047124;28;20439;-70
2023/07/16 10:12:15;;;;;;;3.50;2.30;;;23.30;40.30;;;;;;5043023;28;20416;-72
2023/07/16 10:14:43;;;;;;;3.55;2.22;;;23.40;40.40;;;;;;5051158;28;20417;-71
2023/07/16 10:17:15;;;;;;;2.90;2.50;;;23.60;39.90;;;;;;5051819;28;20424;-71
2023/07/16 10:20:10;;;;;;;3.08;2.40;;;24.00;40.20;;;;;;5050463;28;20479;-70
2023/07/16 10:22:38;;;;;;;2.80;2.20;;;24.20;38.80;;;;;;5039468;28;20500;-70
2023/07/16 10:25:09;;;;;;;3.13;2.30;;;24.20;39.00;;;;;;5036012;28;20438;-70
2023/07/16 10:27:36;;;;;;;3.70;2.70;;;24.40;38.80;;;;;;5042667;28;20426;-71
2023/07/16 10:30:05;;;;;;;4.00;2.47;;;24.50;39.00;;;;;;5051475;28;20761;-71
2023/07/16 10:32:34;;;;;;;2.80;2.10;;;24.70;38.00;;;;;;5052050;28;20421;-70
2023/07/16 10:35:01;;;;;;;3.00;2.00;;;24.70;37.90;;;;;;5051112;28;20906;-71
2023/07/16 10:37:29;;;;;;;3.50;2.20;;;24.70;37.00;;;;;;5041861;28;20435;-72
2023/07/16 10:39:58;;;;;;;4.25;2.80;;;24.80;36.20;;;;;;5040485;28;20429;-72
2023/07/16 10:42:26;;;;;;;3.40;2.40;;;24.60;36.90;;;;;;5050303;28;20425;-71
2023/07/16 10:44:54;;;;;;;3.85;2.10;;;24.70;37.80;;;;;;5050164;28;20867;-71
2023/07/16 10:47:23;;;;;;;3.97;2.47;;;24.70;36.50;;;;;;5049618;28;20417;-71
2023/07/16 10:49:49;;;;;;;2.95;2.40;;;24.60;36.50;;;;;;5050011;28;20421;-71
2023/07/16 10:52:16;;;;;;;2.70;2.10;;;24.40;37.30;;;;;;5035407;28;20434;-71
2023/07/16 10:54:44;;;;;;;3.63;2.60;;;24.40;37.20;;;;;;5046525;28;20429;-70
2023/07/16 10:57:12;;;;;;;3.67;2.38;;;24.30;37.10;;;;;;5037598;28;20481;-71
2023/07/16 10:59:40;;;;;;;2.60;2.30;;;24.10;37.30;;;;;;5048653;28;20460;-70
2023/07/16 11:02:11;;;;;;;3.10;2.30;;;24.00;37.00;;;;;;5039263;28;20415;-71
2023/07/16 11:04:37;;;;;;;3.03;2.47;;;23.90;37.90;;;;;;5030669;28;20415;-71
2023/07/16 11:07:09;;;;;;;3.13;2.20;;;23.90;38.00;;;;;;5030395;28;20457;-70
2023/07/16 11:09:40;;;;;;;3.47;2.58;;;24.00;37.00;;;;;;5036041;28;20480;-72
2023/07/16 11:12:09;;;;;;;3.35;2.20;;;24.10;39.00;;;;;;5030556;28;20853;-71
2023/07/16 11:14:36;;;;;;;4.03;2.63;;;24.30;37.80;;;;;;5030249;28;20415;-71
2023/07/16 11:17:08;;;;;;;5.28;3.38;;;24.40;37.50;;;;;;5030219;28;20431;-70
2023/07/16 11:19:35;;;;;;;3.75;2.50;;;24.40;37.40;;;;;;5030155;28;20443;-71
2023/07/16 11:22:03;;;;;;;3.80;2.40;;;24.70;37.90;;;;;;5050114;28;20803;-71
2023/07/16 11:24:36;;;;;;;3.30;2.38;;;24.80;36.80;;;;;;5086710;22;20792;-67
2023/07/16 11:27:03;;;;;;;3.20;2.00;;;24.90;36.10;;;;;;5075461;28;20407;-66
2023/07/16 11:29:36;;;;;;;4.78;2.50;;;24.90;35.90;;;;;;5066787;28;20521;-67
2023/07/16 11:32:04;;;;;;;2.90;2.50;;;25.00;36.20;;;;;;5068727;28;20411;-67
2023/07/16 11:34:30;;;;;;;2.90;2.53;;;25.20;35.80;;;;;;5071067;28;20415;-66
2023/07/16 11:37:08;;;;;;;3.40;2.30;;;25.40;35.10;;;;;;5083458;28;20865;-67
2023/07/16 11:39:34;;;;;;;3.20;2.70;;;25.50;35.10;;;;;;5082536;28;20440;-67
2023/07/16 11:42:03;;;;;;;2.60;2.17;;;25.60;34.30;;;;;;5079005;28;20418;-67
2023/07/16 11:44:34;;;;;;;3.53;2.23;;;25.60;34.60;;;;;;5087493;28;20732;-67
2023/07/16 11:47:03;;;;;;;3.20;2.10;;;25.50;34.30;;;;;;5087660;28;20406;-67
2023/07/16 11:49:29;;;;;;;3.30;2.20;;;25.50;34.30;;;;;;5085819;28;20441;-67
2023/07/16 11:51:57;;;;;;;3.43;1.97;;;25.40;34.80;;;;;;5075675;28;20416;-67
2023/07/16 11:54:24;;;;;;;3.53;2.50;;;25.00;35.00;;;;;;5067291;28;20422;-67
2023/07/16 11:56:50;;;;;;;3.28;2.00;;;24.80;35.50;;;;;;5078085;28;20427;-67
2023/07/16 11:59:19;;;;;;;3.95;2.30;;;24.60;36.20;;;;;;5087173;28;20413;-67
2023/07/16 12:01:47;;;;;;;3.03;2.60;;;24.70;36.80;;;;;;5087358;28;20418;-68
2023/07/16 12:04:15;;;;;;;3.23;1.90;;;25.10;35.60;;;;;;5087342;28;20410;-67
2023/07/16 12:06:42;;;;;;;2.67;2.30;;;25.70;34.60;;;;;;5085644;28;20896;-69
2023/07/16 12:09:09;;;;;;;2.85;2.35;;;26.00;33.00;;;;;;5085637;28;20529;-69
2023/07/16 12:11:37;;;;;;;3.10;2.40;;;25.90;34.30;;;;;;5086815;28;20509;-69
2023/07/16 12:14:04;;;;;;;3.10;2.10;;;25.70;33.90;;;;;;5081768;28;20510;-69
2023/07/16 12:16:31;;;;;;;3.90;2.30;;;25.60;34.30;;;;;;5090824;28;20451;-68
2023/07/16 12:18:58;;;;;;;2.67;2.10;;;25.40;34.90;;;;;;5090563;28;20413;-68
2023/07/16 12:21:26;;;;;;;2.80;2.00;;;25.40;34.70;;;;;;5091173;28;20410;-68
2023/07/16 12:23:52;;;;;;;3.40;2.00;;;25.20;34.60;;;;;;5087015;28;20433;-68
2023/07/16 12:26:19;;;;;;;3.90;2.33;;;25.30;35.60;;;;;;5084113;28;20493;-69
2023/07/16 12:28:46;;;;;;;2.72;2.20;;;25.80;35.60;;;;;;5081898;28;20422;-68
2023/07/16 12:31:12;;;;;;;4.00;2.50;;;26.50;33.90;;;;;;5089631;28;20429;-68
2023/07/16 12:33:39;;;;;;;3.40;2.10;;;26.60;32.70;;;;;;5082083;28;20872;-68
2023/07/16 12:36:06;;;;;;;2.75;2.20;;;26.60;32.20;;;;;;5090537;28;20517;-70
2023/07/16 12:38:34;;;;;;;4.00;2.40;;;26.40;32.50;;;;;;5090544;28;20417;-68
2023/07/16 12:41:01;;;;;;;3.00;2.20;;;26.40;32.80;;;;;;5086949;28;20434;-67
2023/07/16 12:43:27;;;;;;;2.97;2.28;;;26.50;32.30;;;;;;5082787;28;20415;-70
2023/07/16 12:45:54;;;;;;;2.45;2.10;;;26.50;32.40;;;;;;5090143;28;20439;-69
2023/07/16 12:48:21;;;;;;;3.28;2.50;;;26.70;32.00;;;;;;5090347;28;20517;-69
2023/07/16 12:50:47;;;;;;;2.43;2.20;;;26.40;32.20;;;;;;5090062;28;20489;-69